sensor_id;sensor_type;location;lat;lon;timestamp;pressure;altitude;pressure_sealevel;temperature;humidity
83894;BME280;73920;51.902;6.374;2024-03-06T00:02:03;101753.09;;;7.18;85.98
83894;BME280;73920;51.902;6.374;2024-03-06T00:04:29;101760.09;;;7.20;85.91
83894;BME280;73920;51.902;6.374;2024-03-06T00:06:55;101755.72;;;7.19;86.21
83894;BME280;73920;51.902;6.374;2024-03-06T00:09:22;101755.72;;;7.19;85.93
83894;BME280;73920;51.902;6.374;2024-03-06T00:11:48;101751.28;;;7.20;85.94
83894;BME280;73920;51.902;6.374;2024-03-06T00:14:14;101767.16;;;7.23;85.66
83894;BME280;73920;51.902;6.374;2024-03-06T00:16:42;101764.50;;;7.23;85.96
83894;BME280;73920;51.902;6.374;2024-03-06T00:19:08;101770.72;;;7.22;85.64
83894;BME280;73920;51.902;6.374;2024-03-06T00:21:35;101768.06;;;7.22;85.87
83894;BME280;73920;51.902;6.374;2024-03-06T00:24:02;101777.78;;;7.23;86.15
83894;BME280;73920;51.902;6.374;2024-03-06T00:26:28;101772.47;;;7.23;85.98
83894;BME280;73920;51.902;6.374;2024-03-06T00:28:55;101778.66;;;7.23;85.99
83894;BME280;73920;51.902;6.374;2024-03-06T00:31:21;101750.69;;;7.07;85.92
83894;BME280;73920;51.902;6.374;2024-03-06T00:33:47;101782.22;;;7.22;86.06
83894;BME280;73920;51.902;6.374;2024-03-06T00:36:14;101787.56;;;7.22;85.83
83894;BME280;73920;51.902;6.374;2024-03-06T00:38:40;101787.56;;;7.22;86.10
83894;BME280;73920;51.902;6.374;2024-03-06T00:41:07;101799.94;;;7.23;85.74
83894;BME280;73920;51.902;6.374;2024-03-06T00:43:33;101787.56;;;7.22;85.99
83894;BME280;73920;51.902;6.374;2024-03-06T00:45:59;101795.53;;;7.22;85.98
83894;BME280;73920;51.902;6.374;2024-03-06T00:48:26;101791.97;;;7.23;85.84
83894;BME280;73920;51.902;6.374;2024-03-06T00:50:52;101749.13;;;6.99;85.92
83894;BME280;73920;51.902;6.374;2024-03-06T00:53:18;101796.34;;;7.24;86.07
83894;BME280;73920;51.902;6.374;2024-03-06T00:55:44;101799.87;;;7.25;86.19
83894;BME280;73920;51.902;6.374;2024-03-06T00:58:10;101797.28;;;7.23;86.20
83894;BME280;73920;51.902;6.374;2024-03-06T01:00:37;101796.34;;;7.24;86.10
83894;BME280;73920;51.902;6.374;2024-03-06T01:03:03;101794.56;;;7.25;85.91
83894;BME280;73920;51.902;6.374;2024-03-06T01:05:29;101798.06;;;7.27;86.00
83894;BME280;73920;51.902;6.374;2024-03-06T01:07:55;101793.56;;;7.29;85.59
83894;BME280;73920;51.902;6.374;2024-03-06T01:10:23;101800.69;;;7.28;86.17
83894;BME280;73920;51.902;6.374;2024-03-06T01:12:49;101798.91;;;7.27;85.79
83894;BME280;73920;51.902;6.374;2024-03-06T01:15:16;101797.22;;;7.25;85.89
83894;BME280;73920;51.902;6.374;2024-03-06T01:17:42;101801.66;;;7.24;86.07
83894;BME280;73920;51.902;6.374;2024-03-06T01:20:09;101811.44;;;7.24;85.79
83894;BME280;73920;51.902;6.374;2024-03-06T01:22:36;101808.81;;;7.22;86.14
83894;BME280;73920;51.902;6.374;2024-03-06T01:25:04;101821.22;;;7.23;85.91
83894;BME280;73920;51.902;6.374;2024-03-06T01:27:30;101814.16;;;7.22;86.15
83894;BME280;73920;51.902;6.374;2024-03-06T01:29:57;101812.38;;;7.21;86.19
83894;BME280;73920;51.902;6.374;2024-03-06T01:32:23;101816.81;;;7.21;86.18
83894;BME280;73920;51.902;6.374;2024-03-06T01:34:49;101813.28;;;7.20;86.34
83894;BME280;73920;51.902;6.374;2024-03-06T01:37:16;101765.28;;;6.91;86.11
83894;BME280;73920;51.902;6.374;2024-03-06T01:39:42;101813.34;;;7.19;86.03
83894;BME280;73920;51.902;6.374;2024-03-06T01:42:08;101818.69;;;7.17;86.15
83894;BME280;73920;51.902;6.374;2024-03-06T01:44:34;101816.94;;;7.16;86.25
83894;BME280;73920;51.902;6.374;2024-03-06T01:47:01;101819.66;;;7.15;86.08
83894;BME280;73920;51.902;6.374;2024-03-06T01:49:27;101830.41;;;7.10;86.17
83894;BME280;73920;51.902;6.374;2024-03-06T01:51:55;101824.25;;;7.08;86.33
83894;BME280;73920;51.902;6.374;2024-03-06T01:54:23;101818.97;;;7.07;86.27
83894;BME280;73920;51.902;6.374;2024-03-06T01:56:50;101819.06;;;7.02;86.48
83894;BME280;73920;51.902;6.374;2024-03-06T01:59:20;101814.75;;;6.98;86.07
83894;BME280;73920;51.902;6.374;2024-03-06T02:01:47;101813.94;;;6.94;86.28
83894;BME280;73920;51.902;6.374;2024-03-06T02:04:13;101819.41;;;6.88;86.29
83894;BME280;73920;51.902;6.374;2024-03-06T02:06:40;101824.88;;;6.82;86.36
83894;BME280;73920;51.902;6.374;2024-03-06T02:09:07;101817.06;;;6.75;86.69
83894;BME280;73920;51.902;6.374;2024-03-06T02:11:34;101822.53;;;6.69;86.56
83894;BME280;73920;51.902;6.374;2024-03-06T02:14:00;101825.28;;;6.64;86.60
83894;BME280;73920;51.902;6.374;2024-03-06T02:16:28;101819.25;;;6.58;86.65
83894;BME280;73920;51.902;6.374;2024-03-06T02:18:55;101831.75;;;6.53;86.72
83894;BME280;73920;51.902;6.374;2024-03-06T02:21:22;101830.97;;;6.48;86.67
83894;BME280;73920;51.902;6.374;2024-03-06T02:23:49;101831.09;;;6.41;86.63
83894;BME280;73920;51.902;6.374;2024-03-06T02:26:15;101838.34;;;6.35;86.70
83894;BME280;73920;51.902;6.374;2024-03-06T02:28:50;101834.94;;;6.28;86.67
83894;BME280;73920;51.902;6.374;2024-03-06T02:31:17;101832.44;;;6.21;86.53
83894;BME280;73920;51.902;6.374;2024-03-06T02:33:44;101835.25;;;6.15;86.70
83894;BME280;73920;51.902;6.374;2024-03-06T02:36:11;101839.78;;;6.08;86.71
83894;BME280;73920;51.902;6.374;2024-03-06T02:38:37;101840.78;;;6.03;86.72
83894;BME280;73920;51.902;6.374;2024-03-06T02:41:04;101847.06;;;5.97;86.96
83894;BME280;73920;51.902;6.374;2024-03-06T02:43:30;101846.31;;;5.90;86.89
83894;BME280;73920;51.902;6.374;2024-03-06T02:45:56;101843.78;;;5.83;86.77
83894;BME280;73920;51.902;6.374;2024-03-06T02:48:22;101850.09;;;5.77;86.77
83894;BME280;73920;51.902;6.374;2024-03-06T02:50:49;101837.84;;;5.70;86.99
83894;BME280;73920;51.902;6.374;2024-03-06T02:53:15;101847.66;;;5.65;86.96
83894;BME280;73920;51.902;6.374;2024-03-06T02:55:42;101840.72;;;5.58;86.80
83894;BME280;73920;51.902;6.374;2024-03-06T02:58:08;101847.03;;;5.51;86.83
83894;BME280;73920;51.902;6.374;2024-03-06T03:00:34;101852.47;;;5.43;86.79
83894;BME280;73920;51.902;6.374;2024-03-06T03:03:00;101844.63;;;5.37;87.07
83894;BME280;73920;51.902;6.374;2024-03-06T03:05:27;101844.75;;;5.31;87.04
83894;BME280;73920;51.902;6.374;2024-03-06T03:07:53;101847.41;;;5.28;87.11
83894;BME280;73920;51.902;6.374;2024-03-06T03:10:19;101841.34;;;5.23;86.99
83894;BME280;73920;51.902;6.374;2024-03-06T03:12:45;101849.41;;;5.17;87.14
83894;BME280;73920;51.902;6.374;2024-03-06T03:15:12;101850.37;;;5.10;86.70
83894;BME280;73920;51.902;6.374;2024-03-06T03:17:38;101851.38;;;5.03;87.06
83894;BME280;73920;51.902;6.374;2024-03-06T03:20:05;101862.06;;;4.97;87.05
83894;BME280;73920;51.902;6.374;2024-03-06T03:22:32;101850.66;;;4.92;87.71
83894;BME280;73920;51.902;6.374;2024-03-06T03:24:58;101805.31;;;4.55;87.27
83894;BME280;73920;51.902;6.374;2024-03-06T03:27:24;101862.34;;;4.80;87.67
83894;BME280;73920;51.902;6.374;2024-03-06T03:29:50;101862.44;;;4.73;88.08
83894;BME280;73920;51.902;6.374;2024-03-06T03:32:16;101873.97;;;4.67;87.63
83894;BME280;73920;51.902;6.374;2024-03-06T03:34:43;101878.53;;;4.59;87.19
83894;BME280;73920;51.902;6.374;2024-03-06T03:37:09;101868.88;;;4.54;87.59
83894;BME280;73920;51.902;6.374;2024-03-06T03:39:35;101871.59;;;4.49;87.76
83894;BME280;73920;51.902;6.374;2024-03-06T03:42:01;101876.09;;;4.44;87.66
83894;BME280;73920;51.902;6.374;2024-03-06T03:44:27;101871.72;;;4.40;87.67
83894;BME280;73920;51.902;6.374;2024-03-06T03:46:54;101883.22;;;4.37;87.77
83894;BME280;73920;51.902;6.374;2024-03-06T03:49:20;101885.03;;;4.34;87.94
83894;BME280;73920;51.902;6.374;2024-03-06T03:51:46;101887.69;;;4.31;87.51
83894;BME280;73920;51.902;6.374;2024-03-06T03:54:12;101871.97;;;4.19;87.70
83894;BME280;73920;51.902;6.374;2024-03-06T03:56:39;101890.44;;;4.23;88.03
83894;BME280;73920;51.902;6.374;2024-03-06T03:59:05;101894.00;;;4.22;87.78
83894;BME280;73920;51.902;6.374;2024-03-06T04:01:31;101893.12;;;4.22;87.75
83894;BME280;73920;51.902;6.374;2024-03-06T04:03:57;101892.25;;;4.20;87.71
83894;BME280;73920;51.902;6.374;2024-03-06T04:06:24;101894.94;;;4.17;87.81
83894;BME280;73920;51.902;6.374;2024-03-06T04:08:50;101890.56;;;4.14;87.74
83894;BME280;73920;51.902;6.374;2024-03-06T04:11:17;101888.84;;;4.12;88.16
83894;BME280;73920;51.902;6.374;2024-03-06T04:13:43;101891.50;;;4.09;88.10
83894;BME280;73920;51.902;6.374;2024-03-06T04:16:09;101893.31;;;4.05;87.87
83894;BME280;73920;51.902;6.374;2024-03-06T04:18:36;101891.59;;;4.01;88.06
83894;BME280;73920;51.902;6.374;2024-03-06T04:21:04;101893.38;;;3.99;88.14
83894;BME280;73920;51.902;6.374;2024-03-06T04:23:31;101904.00;;;3.97;87.49
83894;BME280;73920;51.902;6.374;2024-03-06T04:25:58;101897.81;;;3.95;87.52
83894;BME280;73920;51.902;6.374;2024-03-06T04:28:25;101902.25;;;3.92;87.56
83894;BME280;73920;51.902;6.374;2024-03-06T04:30:51;101901.44;;;3.87;87.29
83894;BME280;73920;51.902;6.374;2024-03-06T04:33:17;101898.84;;;3.82;88.04
83894;BME280;73920;51.902;6.374;2024-03-06T04:35:44;101899.72;;;3.80;87.58
83894;BME280;73920;51.902;6.374;2024-03-06T04:38:10;101896.28;;;3.75;87.67
83894;BME280;73920;51.902;6.374;2024-03-06T04:40:36;101905.09;;;3.74;87.90
83894;BME280;73920;51.902;6.374;2024-03-06T04:43:03;101833.22;;;3.31;87.97
83894;BME280;73920;51.902;6.374;2024-03-06T04:45:29;101917.44;;;3.73;88.19
83894;BME280;73920;51.902;6.374;2024-03-06T04:47:55;101910.38;;;3.74;88.13
83894;BME280;73920;51.902;6.374;2024-03-06T04:50:22;101863.97;;;3.41;87.97
83894;BME280;73920;51.902;6.374;2024-03-06T04:52:48;101929.81;;;3.70;88.10
83894;BME280;73920;51.902;6.374;2024-03-06T04:55:14;101933.38;;;3.67;88.15
83894;BME280;73920;51.902;6.374;2024-03-06T04:57:43;101939.56;;;3.63;87.90
83894;BME280;73920;51.902;6.374;2024-03-06T05:00:11;101940.44;;;3.62;88.18
83894;BME280;73920;51.902;6.374;2024-03-06T05:02:38;101941.38;;;3.60;87.75
83894;BME280;73920;51.902;6.374;2024-03-06T05:05:04;101934.34;;;3.57;87.75
83894;BME280;73920;51.902;6.374;2024-03-06T05:07:34;101952.81;;;3.59;88.12
83894;BME280;73920;51.902;6.374;2024-03-06T05:10:00;101946.66;;;3.60;88.16
83894;BME280;73920;51.902;6.374;2024-03-06T05:12:27;101957.19;;;3.64;87.80
83894;BME280;73920;51.902;6.374;2024-03-06T05:14:55;101964.19;;;3.70;87.73
83894;BME280;73920;51.902;6.374;2024-03-06T05:17:21;101963.28;;;3.75;87.89
83894;BME280;73920;51.902;6.374;2024-03-06T05:19:48;101960.56;;;3.81;87.92
83894;BME280;73920;51.902;6.374;2024-03-06T05:22:15;101947.38;;;3.77;87.57
83894;BME280;73920;51.902;6.374;2024-03-06T05:24:42;101974.53;;;3.95;87.56
83894;BME280;73920;51.902;6.374;2024-03-06T05:27:10;101971.88;;;4.00;87.47
83894;BME280;73920;51.902;6.374;2024-03-06T05:29:36;101977.06;;;4.09;87.31
83894;BME280;73920;51.902;6.374;2024-03-06T05:32:04;101972.59;;;4.14;87.44
83894;BME280;73920;51.902;6.374;2024-03-06T05:34:30;101976.97;;;4.18;87.75
83894;BME280;73920;51.902;6.374;2024-03-06T05:36:56;101987.53;;;4.21;87.41
83894;BME280;73920;51.902;6.374;2024-03-06T05:39:22;101991.03;;;4.23;87.63
83894;BME280;73920;51.902;6.374;2024-03-06T05:41:49;101995.44;;;4.24;87.81
83894;BME280;73920;51.902;6.374;2024-03-06T05:44:15;102004.25;;;4.23;87.58
83894;BME280;73920;51.902;6.374;2024-03-06T05:46:41;102012.19;;;4.26;87.79
83894;BME280;73920;51.902;6.374;2024-03-06T05:49:08;102013.94;;;4.27;87.46
83894;BME280;73920;51.902;6.374;2024-03-06T05:51:34;102022.75;;;4.29;87.23
83894;BME280;73920;51.902;6.374;2024-03-06T05:54:00;102018.31;;;4.33;87.71
83894;BME280;73920;51.902;6.374;2024-03-06T05:56:26;102018.31;;;4.33;87.69
83894;BME280;73920;51.902;6.374;2024-03-06T05:58:52;102027.97;;;4.35;87.09
83894;BME280;73920;51.902;6.374;2024-03-06T06:01:19;102006.91;;;4.23;87.70
83894;BME280;73920;51.902;6.374;2024-03-06T06:03:45;102031.50;;;4.34;87.72
83894;BME280;73920;51.902;6.374;2024-03-06T06:06:12;102032.44;;;4.29;87.04
83894;BME280;73920;51.902;6.374;2024-03-06T06:08:38;102031.66;;;4.22;87.54
83894;BME280;73920;51.902;6.374;2024-03-06T06:11:04;102026.37;;;4.19;87.56
83894;BME280;73920;51.902;6.374;2024-03-06T06:13:30;102025.53;;;4.13;87.88
83894;BME280;73920;51.902;6.374;2024-03-06T06:15:59;102029.13;;;4.07;87.96
83894;BME280;73920;51.902;6.374;2024-03-06T06:18:26;102033.56;;;4.04;87.90
83894;BME280;73920;51.902;6.374;2024-03-06T06:20:52;102036.25;;;4.01;88.31
83894;BME280;73920;51.902;6.374;2024-03-06T06:23:18;102038.03;;;3.97;87.85
83894;BME280;73920;51.902;6.374;2024-03-06T06:25:44;102038.94;;;3.96;88.49
83894;BME280;73920;51.902;6.374;2024-03-06T06:28:10;102039.84;;;3.93;87.96
83894;BME280;73920;51.902;6.374;2024-03-06T06:30:37;102034.56;;;3.90;88.33
83894;BME280;73920;51.902;6.374;2024-03-06T06:33:04;102029.28;;;3.87;87.89
83894;BME280;73920;51.902;6.374;2024-03-06T06:35:30;102039.03;;;3.87;87.98
83894;BME280;73920;51.902;6.374;2024-03-06T06:37:58;102040.75;;;3.88;87.91
83894;BME280;73920;51.902;6.374;2024-03-06T06:40:23;102046.06;;;3.85;87.94
83894;BME280;73920;51.902;6.374;2024-03-06T06:42:50;102053.13;;;3.84;87.96
83894;BME280;73920;51.902;6.374;2024-03-06T06:45:17;102057.53;;;3.85;87.96
83894;BME280;73920;51.902;6.374;2024-03-06T06:47:44;102067.22;;;3.85;88.08
83894;BME280;73920;51.902;6.374;2024-03-06T06:50:10;102070.75;;;3.90;87.64
83894;BME280;73920;51.902;6.374;2024-03-06T06:52:37;102071.59;;;3.92;87.64
83894;BME280;73920;51.902;6.374;2024-03-06T06:55:06;102068.06;;;3.93;87.84
83894;BME280;73920;51.902;6.374;2024-03-06T06:57:33;102075.13;;;3.94;87.89
83894;BME280;73920;51.902;6.374;2024-03-06T07:00:00;102079.50;;;3.95;87.77
83894;BME280;73920;51.902;6.374;2024-03-06T07:02:26;102076.81;;;4.00;87.40
83894;BME280;73920;51.902;6.374;2024-03-06T07:04:52;102078.56;;;4.04;87.65
83894;BME280;73920;51.902;6.374;2024-03-06T07:07:18;102088.19;;;4.09;87.55
83894;BME280;73920;51.902;6.374;2024-03-06T07:09:45;102055.66;;;4.00;87.67
83894;BME280;73920;51.902;6.374;2024-03-06T07:12:11;102090.75;;;4.21;87.92
83894;BME280;73920;51.902;6.374;2024-03-06T07:14:37;102097.75;;;4.28;87.75
83894;BME280;73920;51.902;6.374;2024-03-06T07:17:04;102093.28;;;4.35;87.51
83894;BME280;73920;51.902;6.374;2024-03-06T07:19:30;102101.16;;;4.42;87.11
83894;BME280;73920;51.902;6.374;2024-03-06T07:21:56;102106.38;;;4.48;87.69
83894;BME280;73920;51.902;6.374;2024-03-06T07:24:22;102113.41;;;4.56;87.18
83894;BME280;73920;51.902;6.374;2024-03-06T07:26:49;102111.53;;;4.65;87.09
83894;BME280;73920;51.902;6.374;2024-03-06T07:29:15;102113.19;;;4.75;87.10
83894;BME280;73920;51.902;6.374;2024-03-06T07:31:41;102105.09;;;4.89;87.02
83894;BME280;73920;51.902;6.374;2024-03-06T07:34:08;102115.53;;;5.04;86.89
83894;BME280;73920;51.902;6.374;2024-03-06T07:36:35;102124.22;;;5.15;86.72
83894;BME280;73920;51.902;6.374;2024-03-06T07:39:02;102113.53;;;5.23;86.62
83894;BME280;73920;51.902;6.374;2024-03-06T07:41:28;102114.28;;;5.32;86.64
83894;BME280;73920;51.902;6.374;2024-03-06T07:43:54;102119.50;;;5.41;86.57
83894;BME280;73920;51.902;6.374;2024-03-06T07:46:21;102128.16;;;5.56;86.58
83894;BME280;73920;51.902;6.374;2024-03-06T07:48:47;102128.00;;;5.68;86.62
83894;BME280;73920;51.902;6.374;2024-03-06T07:51:13;102131.34;;;5.79;86.59
83894;BME280;73920;51.902;6.374;2024-03-06T07:53:39;102130.38;;;5.87;86.45
83894;BME280;73920;51.902;6.374;2024-03-06T07:56:09;102131.97;;;5.99;86.74
83894;BME280;73920;51.902;6.374;2024-03-06T07:58:36;102134.41;;;6.13;86.60
83894;BME280;73920;51.902;6.374;2024-03-06T08:01:02;102123.62;;;6.25;86.36
83894;BME280;73920;51.902;6.374;2024-03-06T08:03:28;102099.72;;;6.23;86.37
83894;BME280;73920;51.902;6.374;2024-03-06T08:05:54;102133.75;;;6.54;86.42
83894;BME280;73920;51.902;6.374;2024-03-06T08:08:21;102126.44;;;6.66;86.42
83894;BME280;73920;51.902;6.374;2024-03-06T08:10:48;102134.19;;;6.80;86.12
83894;BME280;73920;51.902;6.374;2024-03-06T08:13:14;102136.59;;;6.92;86.12
83894;BME280;73920;51.902;6.374;2024-03-06T08:15:40;102121.28;;;7.05;86.36
83894;BME280;73920;51.902;6.374;2024-03-06T08:18:07;102136.06;;;7.19;86.09
83894;BME280;73920;51.902;6.374;2024-03-06T08:20:33;102140.28;;;7.29;86.26
83894;BME280;73920;51.902;6.374;2024-03-06T08:22:59;102145.31;;;7.43;86.18
83894;BME280;73920;51.902;6.374;2024-03-06T08:25:25;102145.97;;;7.56;85.54
83894;BME280;73920;51.902;6.374;2024-03-06T08:27:52;102147.44;;;7.69;85.73
83894;BME280;73920;51.902;6.374;2024-03-06T08:30:18;102153.25;;;7.86;85.47
83894;BME280;73920;51.902;6.374;2024-03-06T08:32:44;102162.50;;;8.08;85.49
83894;BME280;73920;51.902;6.374;2024-03-06T08:35:12;102158.41;;;8.32;84.91
83894;BME280;73920;51.902;6.374;2024-03-06T08:37:39;102161.03;;;8.69;84.78
83894;BME280;73920;51.902;6.374;2024-03-06T08:40:10;102171.78;;;9.32;83.05
83894;BME280;73920;51.902;6.374;2024-03-06T08:42:36;102166.56;;;9.87;80.14
83894;BME280;73920;51.902;6.374;2024-03-06T08:45:04;102169.28;;;10.43;78.72
83894;BME280;73920;51.902;6.374;2024-03-06T08:47:30;102174.16;;;10.84;76.71
83894;BME280;73920;51.902;6.374;2024-03-06T08:49:56;102175.19;;;11.05;76.16
83894;BME280;73920;51.902;6.374;2024-03-06T08:52:23;102179.72;;;11.53;75.12
83894;BME280;73920;51.902;6.374;2024-03-06T08:54:49;102186.97;;;11.74;71.55
83894;BME280;73920;51.902;6.374;2024-03-06T08:57:15;102188.44;;;11.58;71.93
83894;BME280;73920;51.902;6.374;2024-03-06T08:59:41;102186.81;;;11.54;72.95
83894;BME280;73920;51.902;6.374;2024-03-06T09:02:13;102187.31;;;11.88;73.08
83894;BME280;73920;51.902;6.374;2024-03-06T09:04:44;102191.69;;;12.36;70.88
83894;BME280;73920;51.902;6.374;2024-03-06T09:07:10;102199.00;;;12.54;70.26
83894;BME280;73920;51.902;6.374;2024-03-06T09:09:37;102204.84;;;12.42;69.90
83894;BME280;73920;51.902;6.374;2024-03-06T09:12:05;102201.00;;;12.04;70.72
83894;BME280;73920;51.902;6.374;2024-03-06T09:14:34;102202.22;;;11.95;71.57
83894;BME280;73920;51.902;6.374;2024-03-06T09:17:01;102211.72;;;11.80;71.79
83894;BME280;73920;51.902;6.374;2024-03-06T09:19:28;102212.66;;;11.55;72.00
83894;BME280;73920;51.902;6.374;2024-03-06T09:21:55;102216.09;;;11.35;73.44
83894;BME280;73920;51.902;6.374;2024-03-06T09:24:22;102221.81;;;11.24;73.64
83894;BME280;73920;51.902;6.374;2024-03-06T09:26:49;102222.28;;;11.11;74.09
83894;BME280;73920;51.902;6.374;2024-03-06T09:29:15;102228.09;;;10.97;74.74
83894;BME280;73920;51.902;6.374;2024-03-06T09:31:42;102235.84;;;10.80;75.21
83894;BME280;73920;51.902;6.374;2024-03-06T09:34:11;102234.50;;;10.67;75.22
83894;BME280;73920;51.902;6.374;2024-03-06T09:36:39;102230.22;;;11.14;75.26
83894;BME280;73920;51.902;6.374;2024-03-06T09:39:05;102232.25;;;11.57;73.76
83894;BME280;73920;51.902;6.374;2024-03-06T09:41:31;102236.66;;;11.58;73.41
83894;BME280;73920;51.902;6.374;2024-03-06T09:44:00;102247.41;;;11.82;73.49
83894;BME280;73920;51.902;6.374;2024-03-06T09:46:27;102244.75;;;12.27;71.93
83894;BME280;73920;51.902;6.374;2024-03-06T09:48:53;102253.37;;;12.36;71.41
83894;BME280;73920;51.902;6.374;2024-03-06T09:51:21;102252.75;;;12.06;70.58
83894;BME280;73920;51.902;6.374;2024-03-06T09:53:47;102252.09;;;11.76;71.52
83894;BME280;73920;51.902;6.374;2024-03-06T09:56:13;102254.22;;;11.66;71.40
83894;BME280;73920;51.902;6.374;2024-03-06T09:58:40;102257.56;;;11.48;72.14
83894;BME280;73920;51.902;6.374;2024-03-06T10:01:07;102266.50;;;11.47;72.98
83894;BME280;73920;51.902;6.374;2024-03-06T10:03:33;102260.22;;;11.48;72.50
83894;BME280;73920;51.902;6.374;2024-03-06T10:06:00;102262.09;;;11.46;72.81
83894;BME280;73920;51.902;6.374;2024-03-06T10:08:26;102270.97;;;11.47;73.18
83894;BME280;73920;51.902;6.374;2024-03-06T10:10:53;102270.44;;;11.37;72.52
83894;BME280;73920;51.902;6.374;2024-03-06T10:13:26;102271.44;;;11.34;73.31
83894;BME280;73920;51.902;6.374;2024-03-06T10:18:28;102274.59;;;11.95;72.13
83894;BME280;73920;51.902;6.374;2024-03-06T10:20:56;102266.63;;;12.17;71.94
83894;BME280;73920;51.902;6.374;2024-03-06T10:23:22;102268.69;;;12.10;70.46
83894;BME280;73920;51.902;6.374;2024-03-06T10:25:49;102278.22;;;11.69;69.84
83894;BME280;73920;51.902;6.374;2024-03-06T10:28:16;102270.72;;;11.29;71.70
83894;BME280;73920;51.902;6.374;2024-03-06T10:30:43;102282.88;;;11.13;73.06
83894;BME280;73920;51.902;6.374;2024-03-06T10:33:10;102279.69;;;11.02;73.73
83894;BME280;73920;51.902;6.374;2024-03-06T10:35:37;102279.28;;;10.88;73.41
83894;BME280;73920;51.902;6.374;2024-03-06T10:38:05;102276.84;;;10.80;74.16
83894;BME280;73920;51.902;6.374;2024-03-06T10:40:36;102281.47;;;10.75;74.51
83894;BME280;73920;51.902;6.374;2024-03-06T10:43:05;102286.03;;;10.72;74.88
83894;BME280;73920;51.902;6.374;2024-03-06T10:45:51;102295.47;;;10.83;74.36
83894;BME280;73920;51.902;6.374;2024-03-06T10:48:18;102290.69;;;10.93;74.99
83894;BME280;73920;51.902;6.374;2024-03-06T10:50:47;102287.00;;;10.97;74.73
83894;BME280;73920;51.902;6.374;2024-03-06T10:53:16;102290.59;;;10.96;75.18
83894;BME280;73920;51.902;6.374;2024-03-06T10:55:45;102294.87;;;11.02;75.43
83894;BME280;73920;51.902;6.374;2024-03-06T10:58:12;102292.97;;;11.05;75.42
83894;BME280;73920;51.902;6.374;2024-03-06T11:00:46;102301.78;;;11.09;74.50
83894;BME280;73920;51.902;6.374;2024-03-06T11:03:13;102292.66;;;11.14;74.88
83894;BME280;73920;51.902;6.374;2024-03-06T11:05:41;102295.13;;;11.20;75.12
83894;BME280;73920;51.902;6.374;2024-03-06T11:08:09;102304.72;;;11.27;74.83
83894;BME280;73920;51.902;6.374;2024-03-06T11:10:38;102299.88;;;11.39;74.61
83894;BME280;73920;51.902;6.374;2024-03-06T11:15:41;102301.56;;;11.15;73.63
83894;BME280;73920;51.902;6.374;2024-03-06T11:20:43;102312.47;;;11.09;73.73
83894;BME280;73920;51.902;6.374;2024-03-06T11:23:09;102286.31;;;10.91;73.83
83894;BME280;73920;51.902;6.374;2024-03-06T17:41:22;102450.94;;;7.11;79.10
83894;BME280;73920;51.902;6.374;2024-03-06T17:43:48;102457.94;;;7.16;80.54
83894;BME280;73920;51.902;6.374;2024-03-06T17:46:14;102453.41;;;7.26;81.45
83894;BME280;73920;51.902;6.374;2024-03-06T17:48:41;102462.00;;;7.41;81.89
83894;BME280;73920;51.902;6.374;2024-03-06T17:51:07;102461.75;;;7.58;81.71
83894;BME280;73920;51.902;6.374;2024-03-06T17:53:33;102465.06;;;7.74;81.45
83894;BME280;73920;51.902;6.374;2024-03-06T17:56:00;102435.75;;;7.74;81.28
83894;BME280;73920;51.902;6.374;2024-03-06T17:58:26;102461.13;;;7.95;81.54
83894;BME280;73920;51.902;6.374;2024-03-06T18:00:52;102464.56;;;8.01;81.57
83894;BME280;73920;51.902;6.374;2024-03-06T18:03:18;102471.53;;;8.07;81.67
83894;BME280;73920;51.902;6.374;2024-03-06T18:05:45;102470.63;;;8.09;80.91
83894;BME280;73920;51.902;6.374;2024-03-06T18:08:11;102475.06;;;8.09;81.09
83894;BME280;73920;51.902;6.374;2024-03-06T18:10:37;102481.28;;;8.09;81.11
83894;BME280;73920;51.902;6.374;2024-03-06T18:13:03;102482.16;;;8.10;80.86
83894;BME280;73920;51.902;6.374;2024-03-06T18:15:30;102479.47;;;8.11;80.93
83894;BME280;73920;51.902;6.374;2024-03-06T18:17:56;102480.34;;;8.12;80.63
83894;BME280;73920;51.902;6.374;2024-03-06T18:20:22;102491.94;;;8.09;81.27
83894;BME280;73920;51.902;6.374;2024-03-06T18:22:48;102490.19;;;8.08;80.71
83894;BME280;73920;51.902;6.374;2024-03-06T18:25:15;102489.34;;;8.05;80.82
83894;BME280;73920;51.902;6.374;2024-03-06T18:27:42;102489.34;;;8.05;80.50
83894;BME280;73920;51.902;6.374;2024-03-06T18:30:09;102493.75;;;8.07;80.16
83894;BME280;73920;51.902;6.374;2024-03-06T18:32:36;102508.00;;;8.06;80.63
83894;BME280;73920;51.902;6.374;2024-03-06T18:35:03;102498.25;;;8.04;80.41
83894;BME280;73920;51.902;6.374;2024-03-06T18:37:30;102505.41;;;8.02;80.54
83894;BME280;73920;51.902;6.374;2024-03-06T18:39:56;102509.91;;;7.98;80.36
83894;BME280;73920;51.902;6.374;2024-03-06T18:42:23;102499.31;;;7.95;79.90
83894;BME280;73920;51.902;6.374;2024-03-06T18:44:49;102501.09;;;7.93;80.26
83894;BME280;73920;51.902;6.374;2024-03-06T18:47:16;102509.03;;;7.96;79.72
83894;BME280;73920;51.902;6.374;2024-03-06T18:49:42;102510.84;;;7.96;80.00
83894;BME280;73920;51.902;6.374;2024-03-06T18:52:08;102513.56;;;7.91;79.76
83894;BME280;73920;51.902;6.374;2024-03-06T18:54:36;102520.75;;;7.86;79.99
83894;BME280;73920;51.902;6.374;2024-03-06T18:57:04;102524.41;;;7.79;79.69
83894;BME280;73920;51.902;6.374;2024-03-06T18:59:30;102516.53;;;7.71;80.06
83894;BME280;73920;51.902;6.374;2024-03-06T19:01:56;102519.31;;;7.65;80.40
83894;BME280;73920;51.902;6.374;2024-03-06T19:04:22;102523.81;;;7.60;80.18
83894;BME280;73920;51.902;6.374;2024-03-06T19:06:49;102524.81;;;7.53;79.82
83894;BME280;73920;51.902;6.374;2024-03-06T19:09:15;102524.91;;;7.49;80.25
83894;BME280;73920;51.902;6.374;2024-03-06T19:11:41;102520.47;;;7.48;80.23
83894;BME280;73920;51.902;6.374;2024-03-06T19:14:07;102519.66;;;7.42;80.05
83894;BME280;73920;51.902;6.374;2024-03-06T19:16:33;102525.84;;;7.45;80.04
83894;BME280;73920;51.902;6.374;2024-03-06T19:19:00;102533.84;;;7.45;80.13